createdAt,value
2018-08-19T00:00:47.519Z,8.00
2018-08-19T00:03:15.120Z,7.60
2018-08-19T00:05:42.776Z,7.63
2018-08-19T00:08:10.367Z,7.70
2018-08-19T00:10:50.944Z,8.53
2018-08-19T00:13:18.584Z,8.03
2018-08-19T00:15:46.166Z,7.90
2018-08-19T00:18:13.719Z,7.90
2018-08-19T00:20:41.312Z,7.77
2018-08-19T00:23:09.227Z,7.60
2018-08-19T00:25:39.535Z,7.03
2018-08-19T00:28:08.518Z,7.70
2018-08-19T00:30:36.106Z,7.70
2018-08-19T00:33:03.955Z,8.37
2018-08-19T00:35:31.808Z,7.90
2018-08-19T00:37:59.782Z,7.33
2018-08-19T00:40:27.525Z,7.30
2018-08-19T00:42:55.067Z,8.37
2018-08-19T00:45:22.673Z,8.27
2018-08-19T00:47:50.259Z,7.50
2018-08-19T00:50:20.946Z,8.47
2018-08-19T00:52:48.681Z,8.07
2018-08-19T00:55:16.256Z,8.07
2018-08-19T00:57:46.968Z,8.60
2018-08-19T01:00:14.548Z,7.93
2018-08-19T01:02:42.071Z,7.83
2018-08-19T01:05:09.573Z,8.73
2018-08-19T01:07:37.149Z,8.60
2018-08-19T01:10:04.729Z,8.67
2018-08-19T01:12:32.241Z,9.10
2018-08-19T01:14:59.778Z,9.73
2018-08-19T01:17:31.851Z,9.57
2018-08-19T01:20:06.763Z,11.10
2018-08-19T01:22:35.887Z,9.17
2018-08-19T01:25:04.361Z,11.03
2018-08-19T01:27:33.978Z,10.07
2018-08-19T01:30:01.565Z,10.43
2018-08-19T01:32:29.099Z,11.20
2018-08-19T01:34:56.581Z,9.60
2018-08-19T01:37:24.135Z,9.67
2018-08-19T01:39:51.665Z,11.37
2018-08-19T01:42:19.200Z,9.40
2018-08-19T01:44:46.741Z,10.20
2018-08-19T01:47:14.243Z,9.83
2018-08-19T01:49:41.762Z,11.10
2018-08-19T01:52:09.308Z,10.70
2018-08-19T01:54:36.812Z,10.30
2018-08-19T01:57:04.419Z,10.03
2018-08-19T01:59:33.346Z,10.50
2018-08-19T02:02:02.830Z,9.60
2018-08-19T02:04:31.439Z,10.53
2018-08-19T02:06:59.181Z,11.00
2018-08-19T02:09:26.753Z,11.40
2018-08-19T02:11:57.429Z,10.93
2018-08-19T02:14:25.436Z,9.53
2018-08-19T02:16:53.834Z,10.13
2018-08-19T02:19:21.378Z,12.37
2018-08-19T02:21:49.774Z,10.30
2018-08-19T02:24:17.737Z,10.10
2018-08-19T02:26:45.320Z,10.70
2018-08-19T02:29:29.977Z,10.27
2018-08-19T02:31:59.846Z,10.73
2018-08-19T02:34:31.476Z,11.17
2018-08-19T02:37:04.854Z,11.47
2018-08-19T02:39:33.900Z,11.67
2018-08-19T02:42:01.467Z,11.13
2018-08-19T02:44:29.018Z,10.73
2018-08-19T02:46:56.666Z,10.60
2018-08-19T02:49:24.192Z,11.90
2018-08-19T02:51:51.694Z,11.47
2018-08-19T02:54:19.269Z,11.07
2018-08-19T02:56:46.833Z,10.83
2018-08-19T02:59:14.356Z,11.33
2018-08-19T03:01:41.915Z,11.33
2018-08-19T03:04:09.448Z,12.20
2018-08-19T03:06:36.950Z,11.90
2018-08-19T03:09:06.865Z,11.80
2018-08-19T03:11:34.517Z,10.93
2018-08-19T03:14:02.099Z,11.33
2018-08-19T03:16:29.641Z,10.50
2018-08-19T03:18:57.161Z,12.00
2018-08-19T03:21:24.765Z,10.23
2018-08-19T03:23:53.561Z,10.50
2018-08-19T03:26:21.103Z,12.03
2018-08-19T03:28:48.781Z,11.70
2018-08-19T03:31:16.315Z,10.90
2018-08-19T03:33:43.869Z,11.40
2018-08-19T03:36:11.374Z,11.43
2018-08-19T03:38:38.921Z,10.90
2018-08-19T03:41:06.481Z,10.23
2018-08-19T03:43:33.983Z,11.00
2018-08-19T03:46:11.996Z,10.07
2018-08-19T03:48:39.510Z,10.30
2018-08-19T03:51:08.132Z,10.70
2018-08-19T03:53:35.672Z,11.50
2018-08-19T03:56:03.290Z,9.83
2018-08-19T03:58:30.761Z,11.43
2018-08-19T04:00:58.288Z,10.73
2018-08-19T04:03:26.244Z,11.30
2018-08-19T04:05:59.393Z,10.83
2018-08-19T04:08:33.082Z,12.50
2018-08-19T04:11:01.315Z,10.63
2018-08-19T04:13:33.798Z,11.33
2018-08-19T04:16:02.401Z,11.27
2018-08-19T04:18:54.544Z,11.80
2018-08-19T04:21:22.100Z,12.93
2018-08-19T04:23:49.678Z,11.13
2018-08-19T04:26:17.197Z,11.70
2018-08-19T04:28:45.205Z,10.97
2018-08-19T04:31:18.338Z,11.87
2018-08-19T04:33:47.163Z,10.63
2018-08-19T04:36:16.057Z,10.30
2018-08-19T04:38:43.704Z,12.27
2018-08-19T04:41:11.695Z,10.67
2018-08-19T04:43:39.287Z,13.30
2018-08-19T04:46:06.888Z,11.53
2018-08-19T04:48:34.371Z,11.83
2018-08-19T04:51:01.903Z,13.13
2018-08-19T04:53:30.786Z,12.20
2018-08-19T04:55:58.392Z,13.80
2018-08-19T04:58:25.938Z,11.10
2018-08-19T05:00:53.494Z,11.50
2018-08-19T05:03:21.024Z,11.87
2018-08-19T05:05:48.529Z,11.80
2018-08-19T05:08:16.179Z,11.63
2018-08-19T05:10:43.616Z,11.40
2018-08-19T05:13:11.998Z,11.57
2018-08-19T05:15:40.427Z,11.20
2018-08-19T05:18:08.218Z,13.33
2018-08-19T05:20:35.795Z,13.30
2018-08-19T05:23:03.368Z,11.00
2018-08-19T05:25:30.936Z,13.37
2018-08-19T05:28:04.207Z,13.13
2018-08-19T05:30:32.767Z,10.90
2018-08-19T05:33:00.873Z,12.07
2018-08-19T05:35:29.280Z,13.50
2018-08-19T05:37:57.165Z,12.07
2018-08-19T05:40:24.692Z,13.57
2018-08-19T05:42:52.324Z,12.77
2018-08-19T05:45:19.851Z,12.87
2018-08-19T05:47:58.633Z,13.37
2018-08-19T05:50:26.159Z,13.97
2018-08-19T05:52:53.705Z,12.33
2018-08-19T05:55:21.259Z,13.83
2018-08-19T05:57:48.793Z,15.10
2018-08-19T06:00:22.146Z,14.97
2018-08-19T06:02:49.931Z,14.40
2018-08-19T06:05:17.529Z,15.07
2018-08-19T06:07:45.132Z,14.53
2018-08-19T06:10:12.658Z,14.70
2018-08-19T06:12:40.233Z,15.03
2018-08-19T06:15:07.861Z,15.33
2018-08-19T06:17:35.451Z,15.13
2018-08-19T06:20:03.139Z,13.63
2018-08-19T06:22:39.003Z,15.77
2018-08-19T06:25:06.638Z,13.97
2018-08-19T06:27:39.902Z,14.10
2018-08-19T06:30:07.521Z,15.07
2018-08-19T06:32:35.096Z,12.80
2018-08-19T06:35:02.930Z,13.40
2018-08-19T06:37:30.357Z,14.80
2018-08-19T06:39:57.937Z,15.90
2018-08-19T06:42:25.497Z,12.13
2018-08-19T06:44:53.602Z,12.50
2018-08-19T06:47:21.177Z,12.83
2018-08-19T06:49:53.747Z,15.80
2018-08-19T06:52:22.070Z,12.20
2018-08-19T06:54:49.740Z,12.00
2018-08-19T06:57:17.318Z,12.63
2018-08-19T06:59:44.955Z,13.37
2018-08-19T07:02:12.589Z,11.57
2018-08-19T07:04:43.274Z,10.37
2018-08-19T07:07:16.511Z,10.13
2018-08-19T07:09:44.149Z,9.37
2018-08-19T07:12:14.304Z,10.47
2018-08-19T07:14:42.281Z,9.83
2018-08-19T07:17:09.934Z,9.77
2018-08-19T07:19:38.104Z,10.13
2018-08-19T07:22:06.971Z,9.13
2018-08-19T07:24:35.645Z,7.80
2018-08-19T07:27:03.311Z,8.13
2018-08-19T07:29:31.547Z,7.97
2018-08-19T07:31:59.166Z,7.70
2018-08-19T07:34:26.793Z,8.10
2018-08-19T07:36:55.541Z,7.77
2018-08-19T07:39:23.231Z,7.00
2018-08-19T07:41:50.876Z,6.40
2018-08-19T07:44:18.525Z,6.97
2018-08-19T07:46:46.143Z,6.20
2018-08-19T07:49:13.681Z,5.73
2018-08-19T07:51:41.468Z,6.37
2018-08-19T07:54:09.048Z,5.83
2018-08-19T07:56:37.012Z,5.33
2018-08-19T07:59:14.309Z,6.13
2018-08-19T08:01:41.919Z,6.43
2018-08-19T08:04:09.914Z,5.77
2018-08-19T08:06:37.723Z,6.10
2018-08-19T08:09:08.800Z,6.10
2018-08-19T08:11:36.540Z,6.30
2018-08-19T08:14:04.557Z,7.63
2018-08-19T08:16:41.578Z,5.60
2018-08-19T08:19:09.436Z,5.40
2018-08-19T08:21:37.168Z,5.37
2018-08-19T08:24:05.387Z,5.90
2018-08-19T08:26:35.622Z,5.60
2018-08-19T08:29:04.812Z,5.17
2018-08-19T08:31:36.104Z,6.40
2018-08-19T08:34:03.881Z,6.37
2018-08-19T08:36:31.541Z,17.40
2018-08-19T08:38:59.224Z,4.90
2018-08-19T08:41:26.865Z,6.33
2018-08-19T08:43:54.521Z,5.23
2018-08-19T08:46:22.087Z,5.67
2018-08-19T08:48:49.730Z,7.47
2018-08-19T08:51:17.427Z,5.07
2018-08-19T08:53:45.457Z,6.30
2018-08-19T08:56:13.615Z,6.13
2018-08-19T08:58:41.315Z,7.70
2018-08-19T09:01:08.919Z,6.50
2018-08-19T09:03:36.456Z,6.13
2018-08-19T09:06:08.882Z,6.00
2018-08-19T09:08:36.425Z,6.70
2018-08-19T09:11:04.454Z,5.30
2018-08-19T09:13:32.337Z,6.00
2018-08-19T09:15:59.965Z,6.37
2018-08-19T09:18:27.555Z,6.50
2018-08-19T09:20:55.176Z,6.50
2018-08-19T09:23:23.009Z,6.43
2018-08-19T09:25:50.437Z,6.20
2018-08-19T09:28:18.073Z,5.97
2018-08-19T09:30:45.741Z,6.43
2018-08-19T09:33:13.629Z,6.97
2018-08-19T09:35:42.394Z,6.90
2018-08-19T09:38:16.635Z,6.47
2018-08-19T09:40:44.733Z,7.43
2018-08-19T09:43:12.611Z,6.87
2018-08-19T09:45:40.460Z,6.53
2018-08-19T09:48:08.461Z,6.33
2018-08-19T09:50:36.939Z,6.80
2018-08-19T09:53:04.848Z,6.93
2018-08-19T09:55:38.114Z,6.20
2018-08-19T09:58:10.487Z,6.83
2018-08-19T10:00:43.736Z,7.07
2018-08-19T10:03:11.405Z,7.40
2018-08-19T10:05:39.000Z,7.17
2018-08-19T10:08:06.645Z,7.60
2018-08-19T10:10:36.179Z,7.47
2018-08-19T10:13:04.238Z,7.20
2018-08-19T10:15:32.299Z,6.90
2018-08-19T10:17:59.962Z,6.23
2018-08-19T10:20:27.662Z,6.20
2018-08-19T10:22:56.264Z,7.30
2018-08-19T10:25:24.008Z,8.03
2018-08-19T10:27:52.986Z,7.10
2018-08-19T10:30:20.898Z,8.03
2018-08-19T10:33:01.535Z,8.20
2018-08-19T10:35:29.909Z,7.97
2018-08-19T10:37:57.962Z,6.93
2018-08-19T10:40:25.645Z,7.77
2018-08-19T10:43:09.986Z,7.80
2018-08-19T10:45:39.998Z,6.87
2018-08-19T10:48:09.256Z,6.90
2018-08-19T10:50:37.185Z,7.87
2018-08-19T10:53:07.824Z,7.50
2018-08-19T10:55:35.405Z,6.80
2018-08-19T10:58:03.019Z,7.50
2018-08-19T11:00:31.732Z,6.87
2018-08-19T11:03:05.082Z,6.67
2018-08-19T11:05:34.853Z,7.07
2018-08-19T11:08:02.487Z,6.87
2018-08-19T11:10:30.097Z,7.97
2018-08-19T11:12:58.315Z,7.53
2018-08-19T11:15:34.704Z,7.00
2018-08-19T11:18:52.129Z,6.97
2018-08-19T11:21:38.140Z,6.63
2018-08-19T11:24:10.853Z,6.30
2018-08-19T11:26:38.478Z,6.67
2018-08-19T11:29:06.082Z,6.10
2018-08-19T11:31:35.057Z,6.00
2018-08-19T11:34:04.137Z,6.20
2018-08-19T11:36:37.927Z,5.20
2018-08-19T11:39:08.391Z,6.87
2018-08-19T11:41:36.029Z,6.97
2018-08-19T11:44:07.329Z,6.30
2018-08-19T11:46:35.111Z,6.37
2018-08-19T11:49:23.726Z,6.37
2018-08-19T11:52:09.241Z,7.00
2018-08-19T11:54:36.877Z,6.40
2018-08-19T11:57:10.850Z,6.07
2018-08-19T11:59:43.637Z,5.57
2018-08-19T12:02:13.831Z,5.87
2018-08-19T12:04:41.489Z,6.00
2018-08-19T12:07:09.151Z,6.13
2018-08-19T12:09:37.258Z,6.87
2018-08-19T12:12:04.892Z,5.87
2018-08-19T12:14:33.410Z,5.73
2018-08-19T12:17:01.802Z,6.00
2018-08-19T12:19:31.306Z,5.60
2018-08-19T12:22:02.679Z,5.77
2018-08-19T12:24:33.424Z,5.60
2018-08-19T12:27:02.235Z,5.20
2018-08-19T12:29:31.815Z,5.33
2018-08-19T12:32:12.168Z,5.00
2018-08-19T12:34:43.409Z,5.43
2018-08-19T12:37:12.326Z,5.80
2018-08-19T12:39:39.976Z,5.73
2018-08-19T12:42:07.701Z,5.50
2018-08-19T12:44:35.451Z,6.07
2018-08-19T12:47:22.989Z,5.57
2018-08-19T12:49:52.110Z,5.13
2018-08-19T12:52:21.802Z,5.70
2018-08-19T12:54:55.230Z,5.20
2018-08-19T12:57:23.322Z,5.03
2018-08-19T12:59:51.195Z,4.80
2018-08-19T13:02:23.464Z,4.90
2018-08-19T13:04:51.254Z,5.60
2018-08-19T13:07:19.016Z,4.97
2018-08-19T13:09:49.296Z,4.77
2018-08-19T13:12:17.070Z,5.30
2018-08-19T13:14:44.872Z,5.33
2018-08-19T13:17:12.777Z,5.40
2018-08-19T13:19:40.525Z,4.97
2018-08-19T13:22:08.240Z,5.73
2018-08-19T13:24:37.163Z,5.90
2018-08-19T13:27:05.355Z,5.57
2018-08-19T13:29:33.409Z,5.00
2018-08-19T13:32:01.053Z,5.40
2018-08-19T13:34:28.864Z,5.53
2018-08-19T13:36:56.964Z,5.10
2018-08-19T13:39:25.078Z,5.47
2018-08-19T13:41:52.806Z,5.77
2018-08-19T13:44:20.560Z,5.40
2018-08-19T13:46:48.169Z,5.67
2018-08-19T13:49:19.941Z,5.40
2018-08-19T13:51:47.632Z,5.30
2018-08-19T13:54:15.269Z,6.17
2018-08-19T13:56:43.717Z,5.57
2018-08-19T13:59:11.381Z,6.40
2018-08-19T14:01:38.951Z,6.07
2018-08-19T14:04:07.121Z,7.43
2018-08-19T14:06:34.812Z,5.37
2018-08-19T14:09:02.669Z,6.13
2018-08-19T14:11:30.349Z,5.90
2018-08-19T14:13:57.998Z,5.60
2018-08-19T14:16:25.628Z,5.70
2018-08-19T14:18:53.348Z,5.97
2018-08-19T14:21:21.043Z,5.30
2018-08-19T14:23:48.716Z,5.40
2018-08-19T14:26:16.320Z,5.63
2018-08-19T14:28:43.934Z,5.47
2018-08-19T14:31:11.490Z,5.80
2018-08-19T14:33:39.012Z,5.57
2018-08-19T14:36:07.005Z,5.47
2018-08-19T14:38:34.593Z,5.60
2018-08-19T14:41:02.157Z,5.40
2018-08-19T14:43:29.767Z,5.10
2018-08-19T14:45:57.360Z,5.00
2018-08-19T14:48:25.019Z,5.53
2018-08-19T14:50:52.618Z,5.80
2018-08-19T14:53:20.229Z,5.60
2018-08-19T14:55:47.996Z,5.47
2018-08-19T14:58:15.541Z,5.27
2018-08-19T15:00:43.146Z,4.97
2018-08-19T15:03:10.761Z,5.63
2018-08-19T15:05:38.442Z,5.90
2018-08-19T15:08:11.689Z,6.43
2018-08-19T15:10:39.809Z,6.20
2018-08-19T15:13:07.394Z,5.63
2018-08-19T15:15:35.291Z,6.00
2018-08-19T15:18:02.937Z,5.23
2018-08-19T15:20:33.644Z,6.13
2018-08-19T15:23:13.192Z,5.30
2018-08-19T15:25:40.782Z,5.40
2018-08-19T15:28:08.391Z,5.50
2018-08-19T15:30:39.276Z,5.53
2018-08-19T15:33:07.203Z,5.37
2018-08-19T15:35:34.671Z,5.80
2018-08-19T15:38:02.266Z,5.27
2018-08-19T15:40:43.423Z,5.80
2018-08-19T15:43:12.232Z,5.50
2018-08-19T15:45:40.284Z,5.50
2018-08-19T15:48:08.266Z,4.97
2018-08-19T15:50:35.913Z,5.73
2018-08-19T15:53:06.178Z,5.30
2018-08-19T15:55:34.104Z,6.50
2018-08-19T15:58:02.991Z,5.33
2018-08-19T16:00:39.888Z,5.83
2018-08-19T16:03:08.596Z,5.80
2018-08-19T16:05:36.168Z,6.03
2018-08-19T16:08:04.470Z,6.50
2018-08-19T16:10:32.110Z,5.70
2018-08-19T16:13:04.100Z,6.70
2018-08-19T16:15:31.726Z,5.37
2018-08-19T16:17:59.360Z,5.93
2018-08-19T16:20:27.096Z,5.60
2018-08-19T16:22:54.872Z,6.20
2018-08-19T16:25:22.609Z,6.40
2018-08-19T16:27:50.858Z,5.70
2018-08-19T16:30:18.907Z,6.07
2018-08-19T16:32:46.513Z,6.30
2018-08-19T16:35:14.213Z,6.07
2018-08-19T16:37:42.271Z,5.57
2018-08-19T16:40:12.383Z,6.00
2018-08-19T16:42:41.209Z,6.30
2018-08-19T16:45:09.924Z,6.43
2018-08-19T16:47:37.632Z,5.70
2018-08-19T16:50:07.577Z,4.97
2018-08-19T16:52:35.434Z,6.23
2018-08-19T16:55:03.522Z,6.40
2018-08-19T16:57:32.187Z,9.33
2018-08-19T17:00:00.076Z,6.20
2018-08-19T17:02:27.806Z,6.57
2018-08-19T17:04:55.586Z,6.70
2018-08-19T17:07:23.376Z,7.47
2018-08-19T17:09:51.172Z,6.90
2018-08-19T17:12:19.004Z,6.57
2018-08-19T17:14:46.749Z,6.63
2018-08-19T17:17:14.349Z,6.93
2018-08-19T17:19:42.043Z,7.43
2018-08-19T17:22:09.721Z,8.27
2018-08-19T17:24:37.397Z,7.00
2018-08-19T17:27:11.980Z,6.60
2018-08-19T17:29:39.714Z,6.83
2018-08-19T17:32:07.645Z,6.03
2018-08-19T17:34:38.940Z,7.30
2018-08-19T17:37:07.786Z,7.20
2018-08-19T17:39:35.546Z,7.33
2018-08-19T17:42:03.219Z,6.20
2018-08-19T17:44:30.850Z,7.03
2018-08-19T17:46:58.487Z,6.60
2018-08-19T17:49:27.143Z,8.43
2018-08-19T17:51:56.077Z,8.03
2018-08-19T17:54:32.566Z,7.47
2018-08-19T17:57:01.381Z,8.10
2018-08-19T17:59:29.608Z,7.90
2018-08-19T18:01:57.284Z,7.23
2018-08-19T18:04:32.190Z,7.93
2018-08-19T18:07:00.094Z,7.37
2018-08-19T18:09:27.744Z,6.97
2018-08-19T18:11:59.941Z,7.93
2018-08-19T18:14:29.066Z,7.60
2018-08-19T18:16:56.759Z,7.00
2018-08-19T18:19:24.444Z,7.50
2018-08-19T18:21:52.169Z,6.70
2018-08-19T18:24:20.281Z,8.40
2018-08-19T18:26:47.950Z,7.00
2018-08-19T18:29:16.824Z,8.33
2018-08-19T18:31:48.326Z,8.70
2018-08-19T18:34:16.204Z,7.27
2018-08-19T18:36:44.047Z,8.93
2018-08-19T18:39:11.865Z,8.00
2018-08-19T18:41:42.744Z,7.77
2018-08-19T18:44:11.353Z,7.07
2018-08-19T18:46:39.007Z,8.40
2018-08-19T18:49:13.603Z,7.87
2018-08-19T18:51:44.235Z,8.70
2018-08-19T18:54:18.003Z,7.03
2018-08-19T18:56:45.775Z,7.10
2018-08-19T18:59:13.623Z,9.23
2018-08-19T19:01:41.992Z,8.23
2018-08-19T19:04:09.907Z,8.53
2018-08-19T19:06:37.552Z,7.90
2018-08-19T19:09:06.336Z,8.70
2018-08-19T19:11:34.114Z,8.00
2018-08-19T19:14:06.459Z,7.97
2018-08-19T19:16:37.477Z,7.73
2018-08-19T19:19:05.588Z,8.77
2018-08-19T19:21:33.546Z,8.30
2018-08-19T19:24:01.757Z,8.00
2018-08-19T19:26:34.993Z,7.63
2018-08-19T19:29:07.521Z,8.33
2018-08-19T19:31:35.406Z,8.00
2018-08-19T19:34:11.680Z,9.07
2018-08-19T19:36:39.855Z,7.67
2018-08-19T19:39:07.613Z,8.80
2018-08-19T19:41:35.540Z,8.37
2018-08-19T19:44:23.697Z,7.97
2018-08-19T19:46:52.527Z,8.10
2018-08-19T19:49:20.696Z,8.30
2018-08-19T19:51:54.151Z,8.90
2018-08-19T19:54:22.922Z,7.87
2018-08-19T19:56:50.805Z,8.60
2018-08-19T19:59:18.777Z,8.97
2018-08-19T20:01:47.017Z,8.83
2018-08-19T20:04:14.673Z,9.40
2018-08-19T20:06:42.714Z,9.97
2018-08-19T20:09:10.899Z,8.60
2018-08-19T20:11:38.870Z,8.63
2018-08-19T20:14:06.962Z,8.80
2018-08-19T20:16:34.818Z,9.00
2018-08-19T20:19:02.440Z,8.17
2018-08-19T20:21:33.664Z,8.97
2018-08-19T20:24:01.362Z,8.73
2018-08-19T20:26:28.998Z,8.17
2018-08-19T20:28:58.152Z,8.70
2018-08-19T20:31:26.507Z,9.10
2018-08-19T20:33:54.289Z,8.57
2018-08-19T20:36:22.056Z,8.40
2018-08-19T20:38:49.769Z,9.03
2018-08-19T20:41:17.462Z,8.17
2018-08-19T20:43:45.130Z,8.60
2018-08-19T20:46:12.993Z,8.07
2018-08-19T20:48:40.682Z,8.27
2018-08-19T20:51:08.479Z,8.20
2018-08-19T20:53:36.141Z,7.17
2018-08-19T20:56:03.888Z,7.50
2018-08-19T20:58:31.532Z,8.13
2018-08-19T21:00:59.318Z,7.40
2018-08-19T21:03:26.986Z,7.80
2018-08-19T21:05:54.580Z,8.13
2018-08-19T21:08:22.378Z,6.73
2018-08-19T21:10:50.191Z,8.17
2018-08-19T21:13:19.044Z,8.47
2018-08-19T21:15:48.957Z,8.23
2018-08-19T21:18:16.663Z,8.80
2018-08-19T21:20:44.296Z,8.43
2018-08-19T21:23:11.902Z,10.00
2018-08-19T21:25:47.145Z,8.30
2018-08-19T21:28:15.239Z,9.23
2018-08-19T21:30:42.823Z,7.70
2018-08-19T21:33:10.400Z,8.53
2018-08-19T21:35:43.560Z,8.40
2018-08-19T21:38:11.296Z,7.77
2018-08-19T21:40:38.987Z,8.10
2018-08-19T21:43:07.208Z,8.90
2018-08-19T21:45:35.421Z,8.13
2018-08-19T21:48:03.081Z,8.70
2018-08-19T21:50:30.703Z,7.90
2018-08-19T21:53:03.266Z,8.93
2018-08-19T21:55:34.072Z,8.30
2018-08-19T21:58:02.184Z,7.57
2018-08-19T22:00:31.793Z,8.30
2018-08-19T22:03:05.171Z,7.87
2018-08-19T22:05:33.948Z,8.27
2018-08-19T22:08:02.728Z,8.43
2018-08-19T22:10:30.585Z,8.13
2018-08-19T22:12:58.258Z,8.27
2018-08-19T22:15:31.564Z,8.40
2018-08-19T22:17:59.868Z,8.97
2018-08-19T22:20:27.502Z,8.47
2018-08-19T22:22:55.078Z,8.23
2018-08-19T22:25:23.045Z,7.77
2018-08-19T22:27:50.623Z,8.57
2018-08-19T22:30:18.188Z,8.37
2018-08-19T22:32:45.743Z,8.37
2018-08-19T22:35:13.323Z,6.93
2018-08-19T22:37:40.970Z,7.80
2018-08-19T22:40:08.517Z,8.30
2018-08-19T22:42:36.081Z,8.17
2018-08-19T22:45:03.928Z,8.70
2018-08-19T22:47:31.568Z,8.20
2018-08-19T22:49:59.811Z,7.80
2018-08-19T22:52:27.394Z,7.40
2018-08-19T22:54:56.241Z,8.80
2018-08-19T22:57:24.253Z,8.10
2018-08-19T22:59:51.835Z,8.27
2018-08-19T23:02:19.452Z,8.20
2018-08-19T23:04:47.218Z,8.20
2018-08-19T23:07:14.811Z,8.43
2018-08-19T23:09:42.308Z,9.03
2018-08-19T23:12:09.903Z,8.00
2018-08-19T23:14:48.695Z,9.03
2018-08-19T23:17:16.288Z,8.80
2018-08-19T23:19:43.841Z,9.07
2018-08-19T23:22:11.320Z,8.70
2018-08-19T23:24:38.856Z,8.73
2018-08-19T23:27:06.379Z,9.40
2018-08-19T23:29:33.889Z,8.80
2018-08-19T23:32:01.408Z,8.83
2018-08-19T23:34:28.893Z,8.80
2018-08-19T23:36:56.374Z,8.87
2018-08-19T23:39:23.982Z,9.73
2018-08-19T23:41:51.488Z,8.60
2018-08-19T23:44:18.984Z,9.10
2018-08-19T23:46:46.519Z,8.53
2018-08-19T23:49:14.055Z,8.80
2018-08-19T23:51:41.588Z,9.50
2018-08-19T23:54:09.118Z,8.47
2018-08-19T23:56:36.636Z,8.83
2018-08-19T23:59:04.290Z,8.77
